createdAt,value
2019-03-29T00:02:18.939Z,11.50
2019-03-29T00:04:58.941Z,11.33
2019-03-29T00:07:40.098Z,10.40
2019-03-29T00:10:20.957Z,13.73
2019-03-29T00:13:00.854Z,11.43
2019-03-29T00:15:40.576Z,16.23
2019-03-29T00:18:20.836Z,11.60
2019-03-29T00:21:00.689Z,12.20
2019-03-29T00:23:41.091Z,11.47
2019-03-29T00:26:20.791Z,12.13
2019-03-29T00:29:00.836Z,13.83
2019-03-29T00:31:40.892Z,12.83
2019-03-29T00:34:20.979Z,14.23
2019-03-29T00:37:01.330Z,12.03
2019-03-29T00:39:41.978Z,12.90
2019-03-29T00:42:21.501Z,12.00
2019-03-29T00:45:01.694Z,13.60
2019-03-29T00:47:42.735Z,14.23
2019-03-29T00:50:23.206Z,12.30
2019-03-29T00:53:02.952Z,11.93
2019-03-29T00:55:43.630Z,13.40
2019-03-29T00:58:23.818Z,13.98
2019-03-29T01:01:04.533Z,12.63
2019-03-29T01:03:44.593Z,13.18
2019-03-29T01:06:24.439Z,11.65
2019-03-29T01:09:04.994Z,12.28
2019-03-29T01:11:45.080Z,13.50
2019-03-29T01:14:25.127Z,14.68
2019-03-29T01:17:04.788Z,13.35
2019-03-29T01:19:45.190Z,15.65
2019-03-29T01:22:25.052Z,13.80
2019-03-29T01:25:05.516Z,17.50
2019-03-29T01:27:34.533Z,14.65
2019-03-29T01:30:13.964Z,14.67
2019-03-29T01:32:54.491Z,16.87
2019-03-29T01:35:34.390Z,17.15
2019-03-29T01:38:21.616Z,13.47
2019-03-29T01:41:01.127Z,13.22
2019-03-29T01:43:41.577Z,14.83
2019-03-29T01:46:21.461Z,13.95
2019-03-29T01:49:01.928Z,13.35
2019-03-29T01:51:41.864Z,16.50
2019-03-29T01:54:21.982Z,15.63
2019-03-29T01:57:01.748Z,14.53
2019-03-29T01:59:42.998Z,18.15
2019-03-29T02:02:24.132Z,15.65
2019-03-29T02:05:03.733Z,15.90
2019-03-29T02:07:43.783Z,13.38
2019-03-29T02:10:23.759Z,14.30
2019-03-29T02:13:04.078Z,14.75
2019-03-29T02:15:44.450Z,14.45
2019-03-29T02:18:24.445Z,16.60
2019-03-29T02:21:04.283Z,13.22
2019-03-29T02:23:44.489Z,13.25
2019-03-29T02:26:24.580Z,15.03
2019-03-29T02:29:04.623Z,17.12
2019-03-29T02:31:44.739Z,16.45
2019-03-29T02:37:05.221Z,14.87
2019-03-29T02:39:43.223Z,15.05
2019-03-29T02:45:34.372Z,22.20
2019-03-29T02:48:21.523Z,22.13
2019-03-29T02:51:01.349Z,17.17
2019-03-29T02:53:41.174Z,15.90
2019-03-29T02:56:21.296Z,15.83
2019-03-29T02:59:01.552Z,15.85
2019-03-29T03:01:41.289Z,15.70
2019-03-29T03:04:21.362Z,12.18
2019-03-29T03:07:01.717Z,11.45
2019-03-29T03:09:43.221Z,12.18
2019-03-29T03:15:03.638Z,11.50
2019-03-29T03:17:44.141Z,12.33
2019-03-29T03:20:24.168Z,13.10
2019-03-29T03:23:04.225Z,14.45
2019-03-29T03:25:44.367Z,11.75
2019-03-29T03:28:24.844Z,12.40
2019-03-29T03:31:04.735Z,15.50
2019-03-29T03:33:45.076Z,12.93
2019-03-29T03:36:24.781Z,14.65
2019-03-29T03:39:03.992Z,15.65
2019-03-29T03:41:44.423Z,13.75
2019-03-29T03:44:31.123Z,17.37
2019-03-29T03:47:10.609Z,16.12
2019-03-29T03:49:50.889Z,13.90
2019-03-29T03:52:31.053Z,18.65
2019-03-29T03:55:10.935Z,14.38
2019-03-29T03:57:50.801Z,17.67
2019-03-29T04:00:30.756Z,16.30
2019-03-29T04:03:10.761Z,16.05
2019-03-29T04:05:50.660Z,19.95
2019-03-29T04:08:30.909Z,17.80
2019-03-29T04:11:10.794Z,16.20
2019-03-29T04:13:51.025Z,17.82
2019-03-29T04:16:32.114Z,13.88
2019-03-29T04:19:11.981Z,14.43
2019-03-29T04:21:51.955Z,14.38
2019-03-29T04:24:32.017Z,15.10
2019-03-29T04:27:12.373Z,14.23
2019-03-29T04:29:52.327Z,14.28
2019-03-29T04:32:32.020Z,15.53
2019-03-29T04:35:11.775Z,13.78
2019-03-29T04:37:52.040Z,15.90
2019-03-29T04:40:31.777Z,15.90
2019-03-29T04:43:11.973Z,13.85
2019-03-29T04:45:51.845Z,15.15
2019-03-29T04:48:31.571Z,14.80
2019-03-29T04:51:11.828Z,16.52
2019-03-29T04:53:51.686Z,19.05
2019-03-29T04:56:31.843Z,18.85
2019-03-29T04:59:11.736Z,16.27
2019-03-29T05:01:51.865Z,15.15
2019-03-29T05:04:31.918Z,16.55
2019-03-29T05:07:11.897Z,16.20
2019-03-29T05:09:52.066Z,19.80
2019-03-29T05:12:32.103Z,16.00
2019-03-29T05:15:11.963Z,15.03
2019-03-29T05:17:52.150Z,17.70
2019-03-29T05:20:31.988Z,16.02
2019-03-29T05:23:11.963Z,14.60
2019-03-29T05:25:52.289Z,17.02
2019-03-29T05:28:33.249Z,15.83
2019-03-29T05:31:14.286Z,14.70
2019-03-29T05:33:53.858Z,15.65
2019-03-29T05:36:34.288Z,15.38
2019-03-29T05:39:15.303Z,17.30
2019-03-29T05:41:55.124Z,15.63
2019-03-29T05:44:35.258Z,16.95
2019-03-29T05:47:15.575Z,11.80
2019-03-29T05:49:55.519Z,14.60
2019-03-29T05:52:35.518Z,17.30
2019-03-29T05:55:15.593Z,14.40
2019-03-29T05:57:55.727Z,14.37
2019-03-29T06:00:35.582Z,12.17
2019-03-29T06:03:15.773Z,14.27
2019-03-29T06:05:56.277Z,17.07
2019-03-29T06:08:36.461Z,18.40
2019-03-29T06:11:16.367Z,16.17
2019-03-29T06:13:56.420Z,15.27
2019-03-29T06:16:39.088Z,13.93
2019-03-29T06:19:23.610Z,14.03
2019-03-29T06:22:04.007Z,13.33
2019-03-29T06:24:43.915Z,12.70
2019-03-29T06:27:24.104Z,11.90
2019-03-29T06:30:04.452Z,14.70
2019-03-29T06:32:44.573Z,14.50
2019-03-29T06:35:24.996Z,15.37
2019-03-29T06:38:04.676Z,17.83
2019-03-29T06:40:45.063Z,12.70
2019-03-29T06:43:25.009Z,11.80
2019-03-29T06:46:05.161Z,16.30
2019-03-29T06:48:45.020Z,14.37
2019-03-29T06:51:24.889Z,12.50
2019-03-29T06:54:05.778Z,14.83
2019-03-29T06:56:45.841Z,14.73
2019-03-29T06:59:25.739Z,13.83
2019-03-29T07:02:06.124Z,14.53
2019-03-29T07:04:46.154Z,14.27
2019-03-29T07:07:26.144Z,12.53
2019-03-29T07:10:06.663Z,13.90
2019-03-29T07:12:45.082Z,13.73
2019-03-29T07:15:32.124Z,16.40
2019-03-29T07:18:12.191Z,14.23
2019-03-29T07:20:52.136Z,13.63
2019-03-29T07:23:31.771Z,11.97
2019-03-29T07:26:11.740Z,12.63
2019-03-29T07:28:51.907Z,12.43
2019-03-29T07:31:31.852Z,13.07
2019-03-29T07:34:12.274Z,13.80
2019-03-29T07:36:52.236Z,13.30
2019-03-29T07:39:32.365Z,14.27
2019-03-29T07:42:12.384Z,12.30
2019-03-29T07:44:52.399Z,14.10
2019-03-29T07:47:32.360Z,13.90
2019-03-29T07:50:12.345Z,12.50
2019-03-29T07:52:52.668Z,14.47
2019-03-29T07:55:36.898Z,12.43
2019-03-29T07:58:15.402Z,14.33
2019-03-29T08:00:55.525Z,12.17
2019-03-29T08:03:35.610Z,14.23
2019-03-29T08:06:15.717Z,14.47
2019-03-29T08:08:55.789Z,12.83
2019-03-29T08:11:46.221Z,14.03
2019-03-29T08:14:17.775Z,12.30
2019-03-29T08:16:57.705Z,13.73
2019-03-29T08:19:37.693Z,12.33
2019-03-29T08:22:17.684Z,12.17
2019-03-29T08:24:59.415Z,12.40
2019-03-29T08:27:39.421Z,13.07
2019-03-29T08:30:19.876Z,14.13
2019-03-29T08:32:59.729Z,11.83
2019-03-29T08:35:39.990Z,13.37
2019-03-29T08:38:20.502Z,12.77
2019-03-29T08:41:02.315Z,11.07
2019-03-29T08:43:43.813Z,11.10
2019-03-29T08:46:27.115Z,12.43
2019-03-29T08:49:07.034Z,11.27
2019-03-29T08:51:46.821Z,11.00
2019-03-29T08:54:28.205Z,11.80
2019-03-29T08:57:10.848Z,9.23
2019-03-29T08:59:51.283Z,11.10
2019-03-29T09:02:31.475Z,11.07
2019-03-29T09:05:11.697Z,10.80
2019-03-29T09:07:51.354Z,10.00
2019-03-29T09:10:31.253Z,10.20
2019-03-29T09:13:12.170Z,8.67
2019-03-29T09:15:52.359Z,9.70
2019-03-29T09:18:32.324Z,9.30
2019-03-29T09:21:12.162Z,10.10
2019-03-29T09:23:52.617Z,9.33
2019-03-29T09:26:36.171Z,7.70
2019-03-29T09:29:16.163Z,9.30
2019-03-29T09:31:56.610Z,7.53
2019-03-29T09:34:36.568Z,7.10
2019-03-29T09:37:20.448Z,8.87
2019-03-29T09:40:00.380Z,8.90
2019-03-29T09:42:40.149Z,8.40
2019-03-29T09:45:20.414Z,7.83
2019-03-29T09:48:00.280Z,8.20
2019-03-29T09:50:40.568Z,8.33
2019-03-29T09:53:20.659Z,7.63
2019-03-29T09:56:01.059Z,8.23
2019-03-29T09:58:44.784Z,7.93
2019-03-29T10:01:23.319Z,8.23
2019-03-29T10:04:03.550Z,7.03
2019-03-29T10:06:43.739Z,6.70
2019-03-29T10:09:23.372Z,7.20
2019-03-29T10:12:03.572Z,7.83
2019-03-29T10:14:42.920Z,7.63
2019-03-29T10:17:23.120Z,6.90
2019-03-29T10:20:03.164Z,6.30
2019-03-29T10:22:44.345Z,6.87
2019-03-29T10:25:25.235Z,6.20
2019-03-29T10:28:05.256Z,7.70
2019-03-29T10:33:31.857Z,7.07
2019-03-29T10:36:11.873Z,6.57
2019-03-29T10:38:51.487Z,7.27
2019-03-29T10:41:34.493Z,6.90
2019-03-29T10:44:13.771Z,7.37
2019-03-29T10:46:53.831Z,7.00
2019-03-29T10:49:35.344Z,7.07
2019-03-29T10:52:15.720Z,6.57
2019-03-29T10:54:56.178Z,7.13
2019-03-29T10:57:36.125Z,6.20
2019-03-29T11:00:17.346Z,4.90
2019-03-29T11:02:56.951Z,5.10
2019-03-29T11:05:37.457Z,5.23
2019-03-29T11:08:17.559Z,5.90
2019-03-29T11:10:58.096Z,4.60
2019-03-29T11:13:40.810Z,4.63
2019-03-29T11:16:19.920Z,5.17
2019-03-29T11:19:01.217Z,4.70
2019-03-29T11:21:41.059Z,5.43
2019-03-29T11:24:20.931Z,4.80
2019-03-29T11:27:01.430Z,4.00
2019-03-29T11:29:41.459Z,4.47
2019-03-29T11:32:21.342Z,4.30
2019-03-29T11:35:01.444Z,4.93
2019-03-29T11:37:41.393Z,5.07
2019-03-29T11:40:21.603Z,5.00
2019-03-29T11:43:01.704Z,4.70
2019-03-29T11:45:41.727Z,4.60
2019-03-29T11:48:21.520Z,4.50
2019-03-29T11:51:01.329Z,4.07
2019-03-29T11:53:41.820Z,3.50
2019-03-29T11:56:21.416Z,3.83
2019-03-29T11:59:01.329Z,4.03
2019-03-29T12:01:42.432Z,4.13
2019-03-29T12:04:23.384Z,4.40
2019-03-29T12:07:03.651Z,4.27
2019-03-29T12:09:44.280Z,3.80
2019-03-29T12:12:27.515Z,4.70
2019-03-29T12:15:06.260Z,4.00
2019-03-29T12:17:46.652Z,4.17
2019-03-29T12:20:25.905Z,5.70
2019-03-29T12:23:06.076Z,4.67
2019-03-29T12:25:46.424Z,4.73
2019-03-29T12:28:26.186Z,4.20
2019-03-29T12:31:05.970Z,5.07
2019-03-29T12:33:46.031Z,5.00
2019-03-29T12:36:25.869Z,5.37
2019-03-29T12:39:06.058Z,4.87
2019-03-29T12:41:45.707Z,3.70
2019-03-29T12:44:25.830Z,4.23
2019-03-29T12:47:05.845Z,4.10
2019-03-29T12:49:45.823Z,5.30
2019-03-29T12:52:25.856Z,4.33
2019-03-29T12:55:07.250Z,4.80
2019-03-29T12:57:48.549Z,4.77
2019-03-29T13:00:26.828Z,4.03
2019-03-29T13:03:14.121Z,5.47
2019-03-29T13:05:54.300Z,4.07
2019-03-29T13:08:33.881Z,4.70
2019-03-29T13:11:13.900Z,4.80
2019-03-29T13:14:08.771Z,5.07
2019-03-29T13:16:36.196Z,4.30
2019-03-29T13:19:16.401Z,4.27
2019-03-29T13:21:56.293Z,4.57
2019-03-29T13:24:36.265Z,4.50
2019-03-29T13:27:16.212Z,4.23
2019-03-29T13:29:56.117Z,4.43
2019-03-29T13:32:36.231Z,3.77
2019-03-29T13:35:16.258Z,4.27
2019-03-29T13:37:56.816Z,4.33
2019-03-29T13:40:36.620Z,4.90
2019-03-29T13:43:16.478Z,4.70
2019-03-29T13:45:56.513Z,4.10
2019-03-29T13:48:37.691Z,5.47
2019-03-29T13:51:17.456Z,4.50
2019-03-29T13:53:57.805Z,5.00
2019-03-29T13:56:38.523Z,4.30
2019-03-29T13:59:18.778Z,4.20
2019-03-29T14:01:58.884Z,4.90
2019-03-29T14:04:39.848Z,5.13
2019-03-29T14:07:20.067Z,4.43
2019-03-29T14:12:40.218Z,5.20
2019-03-29T14:15:20.250Z,8.00
2019-03-29T14:18:01.359Z,5.10
2019-03-29T14:20:41.569Z,7.00
2019-03-29T14:23:09.664Z,4.53
2019-03-29T14:25:56.835Z,4.57
2019-03-29T14:28:36.535Z,3.90
2019-03-29T14:31:16.684Z,4.07
2019-03-29T14:33:58.057Z,4.37
2019-03-29T14:36:37.584Z,4.67
2019-03-29T14:39:17.701Z,4.27
2019-03-29T14:41:57.746Z,3.93
2019-03-29T14:44:51.454Z,3.50
2019-03-29T14:47:20.557Z,3.90
2019-03-29T14:50:00.759Z,4.27
2019-03-29T14:52:40.784Z,3.90
2019-03-29T14:55:20.513Z,4.03
2019-03-29T14:58:01.017Z,5.33
2019-03-29T15:00:40.718Z,3.13
2019-03-29T15:03:20.785Z,4.77
2019-03-29T15:06:01.827Z,5.57
2019-03-29T15:08:42.200Z,5.00
2019-03-29T15:11:22.973Z,4.80
2019-03-29T15:14:03.338Z,5.17
2019-03-29T15:16:44.661Z,4.73
2019-03-29T15:19:24.852Z,5.10
2019-03-29T15:22:04.622Z,4.10
2019-03-29T15:24:44.844Z,3.80
2019-03-29T15:27:24.958Z,4.50
2019-03-29T15:30:05.820Z,4.30
2019-03-29T15:32:46.344Z,3.97
2019-03-29T15:35:26.269Z,4.67
2019-03-29T15:38:06.476Z,4.17
2019-03-29T15:43:26.404Z,4.20
2019-03-29T15:46:06.670Z,4.33
2019-03-29T15:48:46.785Z,4.00
2019-03-29T15:51:26.627Z,4.83
2019-03-29T15:54:07.123Z,4.70
2019-03-29T15:56:47.975Z,4.27
2019-03-29T15:59:28.195Z,3.90
2019-03-29T16:02:07.711Z,5.07
2019-03-29T16:04:47.696Z,4.60
2019-03-29T16:07:27.708Z,4.60
2019-03-29T16:10:07.881Z,7.47
2019-03-29T16:12:47.728Z,5.40
2019-03-29T16:15:36.555Z,5.10
2019-03-29T16:18:09.799Z,5.10
2019-03-29T16:20:49.950Z,4.63
2019-03-29T16:23:29.925Z,5.67
2019-03-29T16:26:10.141Z,4.17
2019-03-29T16:28:51.452Z,5.33
2019-03-29T16:31:31.353Z,5.80
2019-03-29T16:34:11.499Z,5.50
2019-03-29T16:36:39.137Z,5.53
2019-03-29T16:39:06.982Z,5.13
2019-03-29T16:41:34.482Z,6.13
2019-03-29T16:44:02.682Z,5.70
2019-03-29T16:46:31.717Z,5.97
2019-03-29T16:49:00.479Z,6.90
2019-03-29T16:51:27.959Z,6.20
2019-03-29T16:53:56.127Z,5.83
2019-03-29T16:56:23.635Z,5.90
2019-03-29T16:58:51.552Z,4.87
2019-03-29T17:01:19.032Z,5.70
2019-03-29T17:03:46.879Z,5.17
2019-03-29T17:06:15.056Z,5.47
2019-03-29T17:08:42.960Z,12.50
2019-03-29T17:11:11.092Z,7.13
2019-03-29T17:13:39.051Z,5.33
2019-03-29T17:16:07.675Z,5.50
2019-03-29T17:18:35.712Z,5.70
2019-03-29T17:21:07.357Z,6.03
2019-03-29T17:23:36.261Z,6.67
2019-03-29T17:26:03.992Z,7.00
2019-03-29T17:28:31.811Z,7.60
2019-03-29T17:31:02.217Z,6.30
2019-03-29T17:33:29.959Z,6.40
2019-03-29T17:35:58.288Z,4.90
2019-03-29T17:38:25.960Z,7.20
2019-03-29T17:40:53.729Z,6.63
2019-03-29T17:43:21.243Z,5.97
2019-03-29T17:45:48.996Z,5.47
2019-03-29T17:48:17.120Z,5.43
2019-03-29T17:50:45.112Z,6.33
2019-03-29T17:53:14.759Z,5.50
2019-03-29T17:55:43.786Z,6.73
2019-03-29T17:58:11.313Z,7.03
2019-03-29T18:00:39.287Z,5.73
2019-03-29T18:03:06.781Z,6.27
2019-03-29T18:05:35.040Z,7.53
2019-03-29T18:08:02.924Z,4.97
2019-03-29T18:10:30.833Z,6.83
2019-03-29T18:12:58.631Z,5.97
2019-03-29T18:15:29.593Z,6.73
2019-03-29T18:17:57.854Z,8.67
2019-03-29T18:20:25.792Z,6.70
2019-03-29T18:22:53.718Z,7.10
2019-03-29T18:25:22.018Z,6.27
2019-03-29T18:27:49.717Z,6.33
2019-03-29T18:30:24.083Z,5.70
2019-03-29T18:32:53.128Z,6.67
2019-03-29T18:35:21.369Z,8.40
2019-03-29T18:37:49.362Z,7.33
2019-03-29T18:40:24.716Z,8.27
2019-03-29T18:42:53.011Z,6.97
2019-03-29T18:45:20.696Z,6.37
2019-03-29T18:47:48.884Z,7.60
2019-03-29T18:50:16.659Z,6.47
2019-03-29T18:52:44.639Z,6.90
2019-03-29T18:55:12.731Z,7.20
2019-03-29T18:57:40.455Z,7.57
2019-03-29T19:00:08.450Z,6.13
2019-03-29T19:02:36.823Z,6.73
2019-03-29T19:05:06.114Z,7.70
2019-03-29T19:07:33.547Z,6.73
2019-03-29T19:10:01.543Z,6.20
2019-03-29T19:12:29.444Z,5.80
2019-03-29T19:14:57.834Z,7.70
2019-03-29T19:17:28.759Z,6.00
2019-03-29T19:19:56.576Z,8.07
2019-03-29T19:22:24.320Z,7.40
2019-03-29T19:24:52.068Z,8.33
2019-03-29T19:27:19.744Z,7.10
2019-03-29T19:29:47.545Z,7.47
2019-03-29T19:32:15.432Z,6.37
2019-03-29T19:34:43.506Z,7.00
2019-03-29T19:37:11.023Z,6.73
2019-03-29T19:39:38.689Z,5.97
2019-03-29T19:42:06.625Z,5.83
2019-03-29T19:44:35.142Z,6.43
2019-03-29T19:47:13.440Z,7.47
2019-03-29T19:49:36.296Z,6.17
2019-03-29T19:52:05.222Z,7.30
2019-03-29T19:54:36.325Z,6.43
2019-03-29T19:57:04.175Z,7.70
2019-03-29T19:59:31.820Z,6.80
2019-03-29T20:02:00.497Z,5.93
2019-03-29T20:04:28.335Z,5.77
2019-03-29T20:06:57.009Z,6.80
2019-03-29T20:09:24.834Z,6.63
2019-03-29T20:11:52.840Z,8.00
2019-03-29T20:14:20.998Z,5.97
2019-03-29T20:16:49.200Z,7.33
2019-03-29T20:19:20.092Z,5.60
2019-03-29T20:21:47.423Z,7.67
2019-03-29T20:24:15.172Z,6.77
2019-03-29T20:26:43.170Z,7.77
2019-03-29T20:29:10.915Z,10.10
2019-03-29T20:31:38.662Z,11.23
2019-03-29T20:34:06.486Z,7.00
2019-03-29T20:36:34.747Z,7.80
2019-03-29T20:39:03.021Z,7.50
2019-03-29T20:41:31.723Z,7.00
2019-03-29T20:43:59.308Z,7.50
2019-03-29T20:46:27.483Z,7.70
2019-03-29T20:48:55.112Z,7.53
2019-03-29T20:51:23.218Z,7.83
2019-03-29T20:53:50.910Z,8.50
2019-03-29T20:56:19.081Z,7.47
2019-03-29T20:58:47.404Z,7.70
2019-03-29T21:01:16.562Z,8.43
2019-03-29T21:03:44.389Z,8.10
2019-03-29T21:06:12.612Z,9.40
2019-03-29T21:08:40.589Z,8.50
2019-03-29T21:11:08.584Z,7.77
2019-03-29T21:13:36.593Z,8.63
2019-03-29T21:16:04.487Z,8.20
2019-03-29T21:18:32.580Z,8.10
2019-03-29T21:21:00.481Z,6.70
2019-03-29T21:23:28.095Z,8.03
2019-03-29T21:25:56.092Z,8.53
2019-03-29T21:28:24.124Z,8.40
2019-03-29T21:30:52.018Z,8.20
2019-03-29T21:33:19.393Z,9.10
2019-03-29T21:35:46.892Z,7.13
2019-03-29T21:38:14.854Z,7.90
2019-03-29T21:40:42.235Z,7.60
2019-03-29T21:43:10.104Z,8.30
2019-03-29T21:45:37.999Z,7.23
2019-03-29T21:48:27.290Z,9.00
2019-03-29T21:50:36.492Z,8.53
2019-03-29T21:53:04.379Z,11.27
2019-03-29T21:55:33.473Z,7.90
2019-03-29T21:58:01.334Z,8.77
2019-03-29T22:00:29.088Z,7.67
2019-03-29T22:02:57.062Z,8.83
2019-03-29T22:05:24.951Z,8.30
2019-03-29T22:07:52.871Z,9.53
2019-03-29T22:10:20.909Z,9.23
2019-03-29T22:12:49.081Z,10.47
2019-03-29T22:15:18.292Z,10.10
2019-03-29T22:17:46.314Z,8.90
2019-03-29T22:20:14.784Z,8.47
2019-03-29T22:22:42.565Z,8.20
2019-03-29T22:25:10.625Z,9.77
2019-03-29T22:27:38.029Z,8.47
2019-03-29T22:30:08.047Z,9.87
2019-03-29T22:32:35.790Z,10.23
2019-03-29T22:35:04.641Z,9.03
2019-03-29T22:37:32.497Z,9.67
2019-03-29T22:40:00.404Z,8.07
2019-03-29T22:42:27.915Z,11.07
2019-03-29T22:44:55.871Z,9.90
2019-03-29T22:47:23.584Z,9.67
2019-03-29T22:49:51.277Z,7.27
2019-03-29T22:52:19.306Z,8.93
2019-03-29T22:54:47.324Z,10.90
2019-03-29T22:57:15.137Z,7.67
2019-03-29T22:59:42.837Z,8.43
2019-03-29T23:02:10.824Z,7.10
2019-03-29T23:04:38.390Z,9.83
2019-03-29T23:07:06.238Z,8.40
2019-03-29T23:09:33.995Z,9.63
2019-03-29T23:12:01.926Z,8.70
2019-03-29T23:14:29.914Z,10.33
2019-03-29T23:16:57.797Z,8.47
2019-03-29T23:19:25.649Z,8.37
2019-03-29T23:21:53.546Z,8.87
2019-03-29T23:24:21.063Z,9.60
2019-03-29T23:26:48.987Z,9.20
2019-03-29T23:29:16.862Z,9.90
2019-03-29T23:31:44.335Z,9.20
2019-03-29T23:34:12.378Z,8.20
2019-03-29T23:36:40.180Z,9.55
2019-03-29T23:39:08.462Z,10.20
2019-03-29T23:41:36.355Z,8.87
2019-03-29T23:44:04.278Z,10.50
2019-03-29T23:46:31.919Z,10.87
2019-03-29T23:48:59.704Z,9.57
2019-03-29T23:51:28.383Z,9.73
2019-03-29T23:53:56.457Z,9.33
2019-03-29T23:56:24.413Z,12.07
2019-03-29T23:58:52.393Z,9.20
